sensor_id;sensor_type;location;lat;lon;timestamp;temperature;humidity
47336;DHT22;33068;51.990;5.926;2023-12-20T00:01:01;6.20;99.90
47336;DHT22;33068;51.990;5.926;2023-12-20T00:03:28;6.30;99.90
47336;DHT22;33068;51.990;5.926;2023-12-20T00:05:56;6.30;99.90
47336;DHT22;33068;51.990;5.926;2023-12-20T00:08:24;6.20;99.90
47336;DHT22;33068;51.990;5.926;2023-12-20T00:10:51;6.20;99.90
47336;DHT22;33068;51.990;5.926;2023-12-20T00:13:18;6.20;99.90
47336;DHT22;33068;51.990;5.926;2023-12-20T00:15:45;6.10;99.90
47336;DHT22;33068;51.990;5.926;2023-12-20T00:18:12;6.10;99.90
47336;DHT22;33068;51.990;5.926;2023-12-20T00:20:39;6.10;99.90
47336;DHT22;33068;51.990;5.926;2023-12-20T00:23:06;6.00;99.90
47336;DHT22;33068;51.990;5.926;2023-12-20T00:25:35;6.10;99.90
47336;DHT22;33068;51.990;5.926;2023-12-20T00:28:03;6.10;99.90
47336;DHT22;33068;51.990;5.926;2023-12-20T00:30:30;6.10;99.90
47336;DHT22;33068;51.990;5.926;2023-12-20T00:32:59;6.10;99.90
47336;DHT22;33068;51.990;5.926;2023-12-20T00:35:26;6.10;99.90
47336;DHT22;33068;51.990;5.926;2023-12-20T00:37:53;6.00;99.90
47336;DHT22;33068;51.990;5.926;2023-12-20T00:40:20;6.00;99.90
47336;DHT22;33068;51.990;5.926;2023-12-20T00:42:49;6.00;99.90
47336;DHT22;33068;51.990;5.926;2023-12-20T00:45:16;6.00;99.90
47336;DHT22;33068;51.990;5.926;2023-12-20T00:47:43;6.00;99.90
47336;DHT22;33068;51.990;5.926;2023-12-20T00:50:10;5.90;99.90
47336;DHT22;33068;51.990;5.926;2023-12-20T00:52:36;5.90;99.90
47336;DHT22;33068;51.990;5.926;2023-12-20T00:55:04;5.90;99.90
47336;DHT22;33068;51.990;5.926;2023-12-20T00:57:31;5.90;99.90
47336;DHT22;33068;51.990;5.926;2023-12-20T01:00:00;5.90;99.90
47336;DHT22;33068;51.990;5.926;2023-12-20T01:02:27;5.80;99.90
47336;DHT22;33068;51.990;5.926;2023-12-20T01:04:54;5.80;99.90
47336;DHT22;33068;51.990;5.926;2023-12-20T01:07:21;5.70;99.90
47336;DHT22;33068;51.990;5.926;2023-12-20T01:09:49;5.80;99.90
47336;DHT22;33068;51.990;5.926;2023-12-20T01:12:16;5.80;99.90
47336;DHT22;33068;51.990;5.926;2023-12-20T01:14:43;5.80;99.90
47336;DHT22;33068;51.990;5.926;2023-12-20T01:17:12;5.80;99.90
47336;DHT22;33068;51.990;5.926;2023-12-20T01:19:39;5.80;99.90
47336;DHT22;33068;51.990;5.926;2023-12-20T01:22:07;5.80;99.90
47336;DHT22;33068;51.990;5.926;2023-12-20T01:24:34;5.70;99.90
47336;DHT22;33068;51.990;5.926;2023-12-20T01:27:01;5.70;99.90
47336;DHT22;33068;51.990;5.926;2023-12-20T01:29:27;5.70;99.90
47336;DHT22;33068;51.990;5.926;2023-12-20T01:31:55;5.70;99.90
47336;DHT22;33068;51.990;5.926;2023-12-20T01:34:23;5.70;99.90
47336;DHT22;33068;51.990;5.926;2023-12-20T01:36:51;5.70;99.90
47336;DHT22;33068;51.990;5.926;2023-12-20T01:39:18;5.70;99.90
47336;DHT22;33068;51.990;5.926;2023-12-20T01:41:45;5.60;99.90
47336;DHT22;33068;51.990;5.926;2023-12-20T01:44:12;5.60;99.90
47336;DHT22;33068;51.990;5.926;2023-12-20T01:46:39;5.60;99.90
47336;DHT22;33068;51.990;5.926;2023-12-20T01:49:07;5.60;99.90
47336;DHT22;33068;51.990;5.926;2023-12-20T01:51:36;5.60;99.90
47336;DHT22;33068;51.990;5.926;2023-12-20T01:54:04;5.60;99.90
47336;DHT22;33068;51.990;5.926;2023-12-20T01:56:33;5.60;99.90
47336;DHT22;33068;51.990;5.926;2023-12-20T01:59:01;5.60;99.90
47336;DHT22;33068;51.990;5.926;2023-12-20T02:01:30;5.50;99.90
47336;DHT22;33068;51.990;5.926;2023-12-20T02:03:58;5.50;99.90
47336;DHT22;33068;51.990;5.926;2023-12-20T02:06:29;5.60;99.90
47336;DHT22;33068;51.990;5.926;2023-12-20T02:08:59;5.60;99.90
47336;DHT22;33068;51.990;5.926;2023-12-20T02:11:26;5.70;99.90
47336;DHT22;33068;51.990;5.926;2023-12-20T02:13:54;5.70;99.90
47336;DHT22;33068;51.990;5.926;2023-12-20T02:16:22;5.70;99.90
47336;DHT22;33068;51.990;5.926;2023-12-20T02:18:49;5.70;99.90
47336;DHT22;33068;51.990;5.926;2023-12-20T02:21:16;5.70;99.90
47336;DHT22;33068;51.990;5.926;2023-12-20T02:23:44;5.60;99.90
47336;DHT22;33068;51.990;5.926;2023-12-20T02:26:11;5.60;99.90
47336;DHT22;33068;51.990;5.926;2023-12-20T02:28:39;5.50;99.90
47336;DHT22;33068;51.990;5.926;2023-12-20T02:31:07;5.50;99.90
47336;DHT22;33068;51.990;5.926;2023-12-20T02:33:34;5.60;99.90
47336;DHT22;33068;51.990;5.926;2023-12-20T02:36:01;5.60;99.90
47336;DHT22;33068;51.990;5.926;2023-12-20T02:38:28;5.60;99.90
47336;DHT22;33068;51.990;5.926;2023-12-20T02:40:56;5.70;99.90
47336;DHT22;33068;51.990;5.926;2023-12-20T02:43:26;5.70;99.90
47336;DHT22;33068;51.990;5.926;2023-12-20T02:45:53;5.70;99.90
47336;DHT22;33068;51.990;5.926;2023-12-20T02:48:20;5.70;99.90
47336;DHT22;33068;51.990;5.926;2023-12-20T02:50:47;5.70;99.90
47336;DHT22;33068;51.990;5.926;2023-12-20T02:53:15;5.70;99.90
47336;DHT22;33068;51.990;5.926;2023-12-20T02:55:42;5.70;99.90
47336;DHT22;33068;51.990;5.926;2023-12-20T02:58:11;5.70;99.90
47336;DHT22;33068;51.990;5.926;2023-12-20T03:00:38;5.80;99.90
47336;DHT22;33068;51.990;5.926;2023-12-20T03:03:05;5.90;99.90
47336;DHT22;33068;51.990;5.926;2023-12-20T03:08:23;5.90;99.90
47336;DHT22;33068;51.990;5.926;2023-12-20T03:10:50;5.90;99.90
47336;DHT22;33068;51.990;5.926;2023-12-20T03:13:57;5.90;99.90
47336;DHT22;33068;51.990;5.926;2023-12-20T03:16:24;6.00;99.90
47336;DHT22;33068;51.990;5.926;2023-12-20T03:18:58;6.00;99.90
47336;DHT22;33068;51.990;5.926;2023-12-20T03:21:34;6.00;99.90
47336;DHT22;33068;51.990;5.926;2023-12-20T03:24:03;5.90;99.90
47336;DHT22;33068;51.990;5.926;2023-12-20T03:26:30;5.90;99.90
47336;DHT22;33068;51.990;5.926;2023-12-20T03:28:58;5.80;99.90
47336;DHT22;33068;51.990;5.926;2023-12-20T03:31:25;5.80;99.90
47336;DHT22;33068;51.990;5.926;2023-12-20T03:33:53;5.90;99.90
47336;DHT22;33068;51.990;5.926;2023-12-20T03:36:20;5.80;99.90
47336;DHT22;33068;51.990;5.926;2023-12-20T03:38:47;5.80;99.90
47336;DHT22;33068;51.990;5.926;2023-12-20T03:41:14;5.80;99.90
47336;DHT22;33068;51.990;5.926;2023-12-20T03:43:41;5.80;99.90
47336;DHT22;33068;51.990;5.926;2023-12-20T03:46:09;5.80;99.90
47336;DHT22;33068;51.990;5.926;2023-12-20T03:48:37;5.80;99.90
47336;DHT22;33068;51.990;5.926;2023-12-20T03:51:04;5.80;99.90
47336;DHT22;33068;51.990;5.926;2023-12-20T03:53:31;5.80;99.90
47336;DHT22;33068;51.990;5.926;2023-12-20T03:55:59;5.70;99.90
47336;DHT22;33068;51.990;5.926;2023-12-20T03:58:26;5.70;99.90
47336;DHT22;33068;51.990;5.926;2023-12-20T04:00:53;5.70;99.90
47336;DHT22;33068;51.990;5.926;2023-12-20T04:03:22;5.70;99.90
47336;DHT22;33068;51.990;5.926;2023-12-20T04:05:49;5.70;99.90
47336;DHT22;33068;51.990;5.926;2023-12-20T04:08:17;5.70;99.90
47336;DHT22;33068;51.990;5.926;2023-12-20T04:10:44;5.80;99.90
47336;DHT22;33068;51.990;5.926;2023-12-20T04:13:11;5.80;99.90
47336;DHT22;33068;51.990;5.926;2023-12-20T04:15:38;5.80;99.90
47336;DHT22;33068;51.990;5.926;2023-12-20T04:18:07;5.70;99.90
47336;DHT22;33068;51.990;5.926;2023-12-20T04:20:35;5.70;99.90
47336;DHT22;33068;51.990;5.926;2023-12-20T04:23:02;5.80;99.90
47336;DHT22;33068;51.990;5.926;2023-12-20T04:25:29;5.80;99.90
47336;DHT22;33068;51.990;5.926;2023-12-20T04:27:58;5.80;99.90
47336;DHT22;33068;51.990;5.926;2023-12-20T04:30:25;5.80;99.90
47336;DHT22;33068;51.990;5.926;2023-12-20T04:32:52;5.80;99.90
47336;DHT22;33068;51.990;5.926;2023-12-20T04:35:20;5.80;99.90
47336;DHT22;33068;51.990;5.926;2023-12-20T04:37:49;5.90;99.90
47336;DHT22;33068;51.990;5.926;2023-12-20T04:40:21;5.90;99.90
47336;DHT22;33068;51.990;5.926;2023-12-20T04:43:59;5.90;99.90
47336;DHT22;33068;51.990;5.926;2023-12-20T04:46:44;5.90;99.90
47336;DHT22;33068;51.990;5.926;2023-12-20T04:49:11;5.90;99.90
47336;DHT22;33068;51.990;5.926;2023-12-20T04:51:41;5.90;99.90
47336;DHT22;33068;51.990;5.926;2023-12-20T04:54:09;5.90;99.90
47336;DHT22;33068;51.990;5.926;2023-12-20T04:56:36;6.00;99.90
47336;DHT22;33068;51.990;5.926;2023-12-20T04:59:03;6.00;99.90
47336;DHT22;33068;51.990;5.926;2023-12-20T05:01:31;6.00;99.90
47336;DHT22;33068;51.990;5.926;2023-12-20T05:03:58;6.10;99.90
47336;DHT22;33068;51.990;5.926;2023-12-20T05:06:25;6.10;99.90
47336;DHT22;33068;51.990;5.926;2023-12-20T05:08:52;6.10;99.90
47336;DHT22;33068;51.990;5.926;2023-12-20T05:11:21;6.20;99.90
47336;DHT22;33068;51.990;5.926;2023-12-20T05:13:48;6.30;99.90
47336;DHT22;33068;51.990;5.926;2023-12-20T05:16:15;6.30;99.90
47336;DHT22;33068;51.990;5.926;2023-12-20T05:18:45;6.30;99.90
47336;DHT22;33068;51.990;5.926;2023-12-20T05:21:12;6.30;99.90
47336;DHT22;33068;51.990;5.926;2023-12-20T05:23:39;6.30;99.90
47336;DHT22;33068;51.990;5.926;2023-12-20T05:26:06;6.40;99.90
47336;DHT22;33068;51.990;5.926;2023-12-20T05:28:35;6.40;99.90
47336;DHT22;33068;51.990;5.926;2023-12-20T05:31:02;6.40;99.90
47336;DHT22;33068;51.990;5.926;2023-12-20T05:33:29;6.50;99.90
47336;DHT22;33068;51.990;5.926;2023-12-20T05:35:56;6.50;99.90
47336;DHT22;33068;51.990;5.926;2023-12-20T05:38:23;6.60;99.90
47336;DHT22;33068;51.990;5.926;2023-12-20T05:40:50;6.50;99.90
47336;DHT22;33068;51.990;5.926;2023-12-20T05:43:17;6.60;99.90
47336;DHT22;33068;51.990;5.926;2023-12-20T05:45:46;6.60;99.90
47336;DHT22;33068;51.990;5.926;2023-12-20T05:48:13;6.60;99.90
47336;DHT22;33068;51.990;5.926;2023-12-20T05:50:40;6.70;99.90
47336;DHT22;33068;51.990;5.926;2023-12-20T05:53:07;6.60;99.90
47336;DHT22;33068;51.990;5.926;2023-12-20T05:55:34;6.70;99.90
47336;DHT22;33068;51.990;5.926;2023-12-20T05:58:01;6.70;99.90
47336;DHT22;33068;51.990;5.926;2023-12-20T06:00:28;6.70;99.90
47336;DHT22;33068;51.990;5.926;2023-12-20T06:02:57;6.70;99.90
47336;DHT22;33068;51.990;5.926;2023-12-20T06:05:24;6.70;99.90
47336;DHT22;33068;51.990;5.926;2023-12-20T06:07:51;6.80;99.90
47336;DHT22;33068;51.990;5.926;2023-12-20T06:10:18;6.80;99.90
47336;DHT22;33068;51.990;5.926;2023-12-20T06:12:45;6.80;99.90
47336;DHT22;33068;51.990;5.926;2023-12-20T06:16:15;6.80;99.90
47336;DHT22;33068;51.990;5.926;2023-12-20T06:30:45;6.90;99.90
47336;DHT22;33068;51.990;5.926;2023-12-20T06:33:15;6.90;99.90
47336;DHT22;33068;51.990;5.926;2023-12-20T06:35:47;6.90;99.90
47336;DHT22;33068;51.990;5.926;2023-12-20T06:38:15;6.80;99.90
47336;DHT22;33068;51.990;5.926;2023-12-20T06:40:48;6.90;99.90
47336;DHT22;33068;51.990;5.926;2023-12-20T06:47:01;6.90;99.90
47336;DHT22;33068;51.990;5.926;2023-12-20T06:57:13;7.00;99.90
47336;DHT22;33068;51.990;5.926;2023-12-20T06:59:41;7.00;99.90
47336;DHT22;33068;51.990;5.926;2023-12-20T07:02:09;6.90;99.90
47336;DHT22;33068;51.990;5.926;2023-12-20T07:04:39;6.90;99.90
47336;DHT22;33068;51.990;5.926;2023-12-20T07:07:07;6.90;99.90
47336;DHT22;33068;51.990;5.926;2023-12-20T07:09:36;6.90;99.90
47336;DHT22;33068;51.990;5.926;2023-12-20T07:12:05;6.90;99.90
47336;DHT22;33068;51.990;5.926;2023-12-20T07:14:35;6.90;99.90
47336;DHT22;33068;51.990;5.926;2023-12-20T07:17:03;7.00;99.90
47336;DHT22;33068;51.990;5.926;2023-12-20T07:19:32;7.00;99.90
47336;DHT22;33068;51.990;5.926;2023-12-20T07:21:59;7.00;99.90
47336;DHT22;33068;51.990;5.926;2023-12-20T07:24:26;7.00;99.90
47336;DHT22;33068;51.990;5.926;2023-12-20T07:26:55;7.00;99.90
47336;DHT22;33068;51.990;5.926;2023-12-20T07:29:22;7.00;99.90
47336;DHT22;33068;51.990;5.926;2023-12-20T07:31:49;7.00;99.90
47336;DHT22;33068;51.990;5.926;2023-12-20T07:34:18;7.00;99.90
47336;DHT22;33068;51.990;5.926;2023-12-20T07:36:45;7.10;99.90
47336;DHT22;33068;51.990;5.926;2023-12-20T07:39:15;7.00;99.90
47336;DHT22;33068;51.990;5.926;2023-12-20T07:41:45;7.10;99.90
47336;DHT22;33068;51.990;5.926;2023-12-20T07:44:15;7.10;99.90
47336;DHT22;33068;51.990;5.926;2023-12-20T07:46:43;7.10;99.90
47336;DHT22;33068;51.990;5.926;2023-12-20T07:49:10;7.10;99.90
47336;DHT22;33068;51.990;5.926;2023-12-20T07:51:38;7.10;99.90
47336;DHT22;33068;51.990;5.926;2023-12-20T07:54:12;7.10;99.90
47336;DHT22;33068;51.990;5.926;2023-12-20T07:56:48;7.10;99.90
47336;DHT22;33068;51.990;5.926;2023-12-20T07:59:17;7.20;99.90
47336;DHT22;33068;51.990;5.926;2023-12-20T08:01:47;7.10;99.90
47336;DHT22;33068;51.990;5.926;2023-12-20T08:04:20;7.10;99.90
47336;DHT22;33068;51.990;5.926;2023-12-20T08:06:47;7.10;99.90
47336;DHT22;33068;51.990;5.926;2023-12-20T08:09:15;7.20;99.90
47336;DHT22;33068;51.990;5.926;2023-12-20T08:11:45;7.20;99.90
47336;DHT22;33068;51.990;5.926;2023-12-20T08:14:17;7.20;99.90
47336;DHT22;33068;51.990;5.926;2023-12-20T08:16:44;7.20;99.90
47336;DHT22;33068;51.990;5.926;2023-12-20T08:19:14;7.20;99.90
47336;DHT22;33068;51.990;5.926;2023-12-20T08:21:45;7.20;99.90
47336;DHT22;33068;51.990;5.926;2023-12-20T08:24:16;7.20;99.90
47336;DHT22;33068;51.990;5.926;2023-12-20T08:26:43;7.30;99.90
47336;DHT22;33068;51.990;5.926;2023-12-20T08:29:13;7.30;99.90
47336;DHT22;33068;51.990;5.926;2023-12-20T08:31:42;7.30;99.90
47336;DHT22;33068;51.990;5.926;2023-12-20T08:34:10;7.30;99.90
47336;DHT22;33068;51.990;5.926;2023-12-20T08:36:43;7.30;99.90
47336;DHT22;33068;51.990;5.926;2023-12-20T08:39:10;7.30;99.90
47336;DHT22;33068;51.990;5.926;2023-12-20T08:41:38;7.30;99.90
47336;DHT22;33068;51.990;5.926;2023-12-20T08:44:06;7.40;99.90
47336;DHT22;33068;51.990;5.926;2023-12-20T08:46:33;7.40;99.90
47336;DHT22;33068;51.990;5.926;2023-12-20T08:49:02;7.40;99.90
47336;DHT22;33068;51.990;5.926;2023-12-20T08:51:30;7.40;99.90
47336;DHT22;33068;51.990;5.926;2023-12-20T08:58:57;7.60;99.90
47336;DHT22;33068;51.990;5.926;2023-12-20T09:01:24;7.50;99.90
47336;DHT22;33068;51.990;5.926;2023-12-20T09:03:54;7.50;99.90
47336;DHT22;33068;51.990;5.926;2023-12-20T09:06:25;7.40;99.90
47336;DHT22;33068;51.990;5.926;2023-12-20T09:08:52;7.40;99.90
47336;DHT22;33068;51.990;5.926;2023-12-20T09:11:20;7.40;99.90
47336;DHT22;33068;51.990;5.926;2023-12-20T09:13:49;7.40;99.90
47336;DHT22;33068;51.990;5.926;2023-12-20T09:16:24;7.40;99.90
47336;DHT22;33068;51.990;5.926;2023-12-20T09:18:57;7.40;99.90
47336;DHT22;33068;51.990;5.926;2023-12-20T09:21:28;7.40;99.90
47336;DHT22;33068;51.990;5.926;2023-12-20T09:24:07;7.40;99.90
47336;DHT22;33068;51.990;5.926;2023-12-20T09:26:37;7.40;99.90
47336;DHT22;33068;51.990;5.926;2023-12-20T09:29:10;7.40;99.90
47336;DHT22;33068;51.990;5.926;2023-12-20T09:31:46;7.40;99.90
47336;DHT22;33068;51.990;5.926;2023-12-20T09:34:22;7.40;99.90
47336;DHT22;33068;51.990;5.926;2023-12-20T09:36:58;7.40;99.90
47336;DHT22;33068;51.990;5.926;2023-12-20T09:39:25;7.40;99.90
47336;DHT22;33068;51.990;5.926;2023-12-20T09:42:03;7.40;99.90
47336;DHT22;33068;51.990;5.926;2023-12-20T09:48:52;7.40;99.90
47336;DHT22;33068;51.990;5.926;2023-12-20T09:51:34;7.40;99.90
47336;DHT22;33068;51.990;5.926;2023-12-20T09:54:13;7.40;99.90
47336;DHT22;33068;51.990;5.926;2023-12-20T09:57:01;7.40;99.90
47336;DHT22;33068;51.990;5.926;2023-12-20T09:59:59;7.40;99.90
47336;DHT22;33068;51.990;5.926;2023-12-20T10:02:50;7.40;99.90
47336;DHT22;33068;51.990;5.926;2023-12-20T10:05:31;7.40;99.90
47336;DHT22;33068;51.990;5.926;2023-12-20T10:08:13;7.50;99.90
47336;DHT22;33068;51.990;5.926;2023-12-20T10:10:45;7.50;99.90
47336;DHT22;33068;51.990;5.926;2023-12-20T10:13:15;7.50;99.90
47336;DHT22;33068;51.990;5.926;2023-12-20T10:15:45;7.50;99.90
47336;DHT22;33068;51.990;5.926;2023-12-20T10:18:14;7.50;99.90
47336;DHT22;33068;51.990;5.926;2023-12-20T10:20:45;7.50;99.90
47336;DHT22;33068;51.990;5.926;2023-12-20T10:23:23;7.60;99.90
47336;DHT22;33068;51.990;5.926;2023-12-20T10:26:03;7.60;99.90
47336;DHT22;33068;51.990;5.926;2023-12-20T10:28:33;7.60;99.90
47336;DHT22;33068;51.990;5.926;2023-12-20T10:31:18;7.60;99.90
47336;DHT22;33068;51.990;5.926;2023-12-20T10:34:14;7.70;99.90
47336;DHT22;33068;51.990;5.926;2023-12-20T10:36:42;7.70;99.90
47336;DHT22;33068;51.990;5.926;2023-12-20T10:39:13;7.70;99.90
47336;DHT22;33068;51.990;5.926;2023-12-20T10:41:52;7.80;99.90
47336;DHT22;33068;51.990;5.926;2023-12-20T10:44:32;7.80;99.90
47336;DHT22;33068;51.990;5.926;2023-12-20T10:46:59;7.80;99.90
47336;DHT22;33068;51.990;5.926;2023-12-20T10:49:30;7.80;99.90
47336;DHT22;33068;51.990;5.926;2023-12-20T10:52:00;7.80;99.90
47336;DHT22;33068;51.990;5.926;2023-12-20T10:54:29;7.80;99.90
47336;DHT22;33068;51.990;5.926;2023-12-20T10:56:58;7.80;99.90
47336;DHT22;33068;51.990;5.926;2023-12-20T10:59:28;7.80;99.90
47336;DHT22;33068;51.990;5.926;2023-12-20T11:01:57;7.80;99.90
47336;DHT22;33068;51.990;5.926;2023-12-20T11:04:28;7.80;99.90
47336;DHT22;33068;51.990;5.926;2023-12-20T11:07:04;7.80;99.90
47336;DHT22;33068;51.990;5.926;2023-12-20T11:09:51;7.90;99.90
47336;DHT22;33068;51.990;5.926;2023-12-20T11:12:46;7.90;99.90
47336;DHT22;33068;51.990;5.926;2023-12-20T11:15:32;7.90;99.90
47336;DHT22;33068;51.990;5.926;2023-12-20T11:18:05;7.90;99.90
47336;DHT22;33068;51.990;5.926;2023-12-20T11:20:37;7.90;99.90
47336;DHT22;33068;51.990;5.926;2023-12-20T11:23:12;7.80;99.90
47336;DHT22;33068;51.990;5.926;2023-12-20T11:25:55;7.90;99.90
47336;DHT22;33068;51.990;5.926;2023-12-20T11:28:30;7.90;99.90
47336;DHT22;33068;51.990;5.926;2023-12-20T11:31:07;7.80;99.90
47336;DHT22;33068;51.990;5.926;2023-12-20T11:33:38;7.80;99.90
47336;DHT22;33068;51.990;5.926;2023-12-20T11:36:13;7.90;99.90
47336;DHT22;33068;51.990;5.926;2023-12-20T11:38:54;7.90;99.90
47336;DHT22;33068;51.990;5.926;2023-12-20T11:41:23;8.00;99.90
47336;DHT22;33068;51.990;5.926;2023-12-20T11:44:01;8.00;99.90
47336;DHT22;33068;51.990;5.926;2023-12-20T11:46:40;8.00;99.90
47336;DHT22;33068;51.990;5.926;2023-12-20T11:49:13;7.90;99.90
47336;DHT22;33068;51.990;5.926;2023-12-20T11:51:45;8.00;99.90
47336;DHT22;33068;51.990;5.926;2023-12-20T11:54:18;8.00;99.90
47336;DHT22;33068;51.990;5.926;2023-12-20T11:56:46;8.00;99.90
47336;DHT22;33068;51.990;5.926;2023-12-20T11:59:19;8.10;99.90
47336;DHT22;33068;51.990;5.926;2023-12-20T12:02:32;8.20;99.90
47336;DHT22;33068;51.990;5.926;2023-12-20T12:10:06;8.40;99.90
47336;DHT22;33068;51.990;5.926;2023-12-20T12:21:22;8.50;99.90
47336;DHT22;33068;51.990;5.926;2023-12-20T12:31:00;8.70;99.90
47336;DHT22;33068;51.990;5.926;2023-12-20T12:34:02;8.70;99.90
47336;DHT22;33068;51.990;5.926;2023-12-20T12:36:55;8.70;99.90
47336;DHT22;33068;51.990;5.926;2023-12-20T12:56:03;8.80;99.90
47336;DHT22;33068;51.990;5.926;2023-12-20T12:59:13;8.70;99.90
47336;DHT22;33068;51.990;5.926;2023-12-20T13:01:40;8.70;99.90
47336;DHT22;33068;51.990;5.926;2023-12-20T13:04:18;8.60;99.90
47336;DHT22;33068;51.990;5.926;2023-12-20T13:06:53;8.60;99.90
47336;DHT22;33068;51.990;5.926;2023-12-20T13:09:27;8.60;99.90
47336;DHT22;33068;51.990;5.926;2023-12-20T13:12:16;8.70;99.90
47336;DHT22;33068;51.990;5.926;2023-12-20T13:14:49;8.80;99.90
47336;DHT22;33068;51.990;5.926;2023-12-20T13:17:25;8.80;99.90
47336;DHT22;33068;51.990;5.926;2023-12-20T13:19:55;8.90;99.90
47336;DHT22;33068;51.990;5.926;2023-12-20T13:22:28;8.90;99.90
47336;DHT22;33068;51.990;5.926;2023-12-20T13:24:58;9.00;99.90
47336;DHT22;33068;51.990;5.926;2023-12-20T13:27:41;8.90;99.90
47336;DHT22;33068;51.990;5.926;2023-12-20T13:30:22;8.90;99.90
47336;DHT22;33068;51.990;5.926;2023-12-20T13:32:49;8.90;99.90
47336;DHT22;33068;51.990;5.926;2023-12-20T13:35:23;8.90;99.90
47336;DHT22;33068;51.990;5.926;2023-12-20T13:37:50;8.90;99.90
47336;DHT22;33068;51.990;5.926;2023-12-20T13:40:25;8.90;99.90
47336;DHT22;33068;51.990;5.926;2023-12-20T13:43:03;8.80;99.90
47336;DHT22;33068;51.990;5.926;2023-12-20T13:48:25;8.80;99.90
47336;DHT22;33068;51.990;5.926;2023-12-20T13:50:59;8.90;99.90
47336;DHT22;33068;51.990;5.926;2023-12-20T13:53:40;8.80;99.90
47336;DHT22;33068;51.990;5.926;2023-12-20T13:56:08;8.80;99.90
47336;DHT22;33068;51.990;5.926;2023-12-20T13:58:38;8.90;99.90
47336;DHT22;33068;51.990;5.926;2023-12-20T14:01:10;8.80;99.90
47336;DHT22;33068;51.990;5.926;2023-12-20T14:03:38;8.80;99.90
47336;DHT22;33068;51.990;5.926;2023-12-20T14:06:07;8.80;99.90
47336;DHT22;33068;51.990;5.926;2023-12-20T14:08:42;8.90;99.90
47336;DHT22;33068;51.990;5.926;2023-12-20T14:11:14;8.90;99.90
47336;DHT22;33068;51.990;5.926;2023-12-20T14:13:47;8.90;99.90
47336;DHT22;33068;51.990;5.926;2023-12-20T14:16:31;8.90;99.90
47336;DHT22;33068;51.990;5.926;2023-12-20T14:19:04;8.90;99.90
47336;DHT22;33068;51.990;5.926;2023-12-20T14:21:33;8.90;99.90
47336;DHT22;33068;51.990;5.926;2023-12-20T14:24:01;8.80;99.90
47336;DHT22;33068;51.990;5.926;2023-12-20T14:26:38;8.80;99.90
47336;DHT22;33068;51.990;5.926;2023-12-20T14:29:12;8.80;99.90
47336;DHT22;33068;51.990;5.926;2023-12-20T14:31:40;8.80;99.90
47336;DHT22;33068;51.990;5.926;2023-12-20T14:34:07;8.90;99.90
47336;DHT22;33068;51.990;5.926;2023-12-20T14:36:36;8.90;99.90
47336;DHT22;33068;51.990;5.926;2023-12-20T14:39:09;8.90;99.90
47336;DHT22;33068;51.990;5.926;2023-12-20T14:41:39;8.90;99.90
47336;DHT22;33068;51.990;5.926;2023-12-20T14:44:11;8.80;99.90
47336;DHT22;33068;51.990;5.926;2023-12-20T14:46:45;8.90;99.90
47336;DHT22;33068;51.990;5.926;2023-12-20T14:49:38;8.90;99.90
47336;DHT22;33068;51.990;5.926;2023-12-20T14:52:20;8.90;99.90
47336;DHT22;33068;51.990;5.926;2023-12-20T14:54:49;8.90;99.90
47336;DHT22;33068;51.990;5.926;2023-12-20T14:57:21;8.90;99.90
47336;DHT22;33068;51.990;5.926;2023-12-20T14:59:57;8.90;99.90
47336;DHT22;33068;51.990;5.926;2023-12-20T15:02:24;8.80;99.90
47336;DHT22;33068;51.990;5.926;2023-12-20T15:04:58;8.90;99.90
47336;DHT22;33068;51.990;5.926;2023-12-20T15:07:29;8.90;99.90
47336;DHT22;33068;51.990;5.926;2023-12-20T15:10:02;8.90;99.90
47336;DHT22;33068;51.990;5.926;2023-12-20T15:12:57;8.80;99.90
47336;DHT22;33068;51.990;5.926;2023-12-20T15:15:28;8.90;99.90
47336;DHT22;33068;51.990;5.926;2023-12-20T15:17:58;8.90;99.90
47336;DHT22;33068;51.990;5.926;2023-12-20T15:20:28;8.80;99.90
47336;DHT22;33068;51.990;5.926;2023-12-20T15:23:04;8.80;99.90
47336;DHT22;33068;51.990;5.926;2023-12-20T15:25:37;8.80;99.90
47336;DHT22;33068;51.990;5.926;2023-12-20T15:28:09;8.80;99.90
47336;DHT22;33068;51.990;5.926;2023-12-20T15:30:41;8.80;99.90
47336;DHT22;33068;51.990;5.926;2023-12-20T15:33:14;8.80;99.90
47336;DHT22;33068;51.990;5.926;2023-12-20T15:35:43;8.80;99.90
47336;DHT22;33068;51.990;5.926;2023-12-20T15:40:58;8.70;99.90
47336;DHT22;33068;51.990;5.926;2023-12-20T15:43:27;8.70;99.90
47336;DHT22;33068;51.990;5.926;2023-12-20T15:46:00;8.80;99.90
47336;DHT22;33068;51.990;5.926;2023-12-20T15:48:33;8.70;99.90
47336;DHT22;33068;51.990;5.926;2023-12-20T15:51:07;8.60;99.90
47336;DHT22;33068;51.990;5.926;2023-12-20T15:53:38;8.60;99.90
47336;DHT22;33068;51.990;5.926;2023-12-20T15:56:15;8.60;99.90
47336;DHT22;33068;51.990;5.926;2023-12-20T15:58:52;8.60;99.90
47336;DHT22;33068;51.990;5.926;2023-12-20T16:01:33;8.50;99.90
47336;DHT22;33068;51.990;5.926;2023-12-20T16:04:14;8.50;99.90
47336;DHT22;33068;51.990;5.926;2023-12-20T16:06:54;8.50;99.90
47336;DHT22;33068;51.990;5.926;2023-12-20T16:09:25;8.40;99.90
47336;DHT22;33068;51.990;5.926;2023-12-20T16:11:57;8.40;99.90
47336;DHT22;33068;51.990;5.926;2023-12-20T16:14:33;8.40;99.90
47336;DHT22;33068;51.990;5.926;2023-12-20T16:17:03;8.40;99.90
47336;DHT22;33068;51.990;5.926;2023-12-20T16:19:56;8.40;99.90
47336;DHT22;33068;51.990;5.926;2023-12-20T16:22:43;8.30;99.90
47336;DHT22;33068;51.990;5.926;2023-12-20T16:25:34;8.30;99.90
47336;DHT22;33068;51.990;5.926;2023-12-20T16:28:38;8.30;99.90
47336;DHT22;33068;51.990;5.926;2023-12-20T16:34:33;8.30;99.90
47336;DHT22;33068;51.990;5.926;2023-12-20T16:37:24;8.30;99.90
47336;DHT22;33068;51.990;5.926;2023-12-20T16:44:18;8.30;99.90
47336;DHT22;33068;51.990;5.926;2023-12-20T16:46:46;8.30;99.90
47336;DHT22;33068;51.990;5.926;2023-12-20T16:49:22;8.30;99.90
47336;DHT22;33068;51.990;5.926;2023-12-20T16:55:23;8.30;99.90
47336;DHT22;33068;51.990;5.926;2023-12-20T17:01:44;8.30;99.90
47336;DHT22;33068;51.990;5.926;2023-12-20T17:15:48;8.30;99.90
47336;DHT22;33068;51.990;5.926;2023-12-20T17:22:18;8.30;99.90
47336;DHT22;33068;51.990;5.926;2023-12-20T17:24:52;8.40;99.90
47336;DHT22;33068;51.990;5.926;2023-12-20T17:27:22;8.40;99.90
47336;DHT22;33068;51.990;5.926;2023-12-20T17:30:07;8.40;99.90
47336;DHT22;33068;51.990;5.926;2023-12-20T17:33:13;8.40;99.90
47336;DHT22;33068;51.990;5.926;2023-12-20T17:38:59;8.40;99.90
47336;DHT22;33068;51.990;5.926;2023-12-20T18:35:09;8.40;99.90
47336;DHT22;33068;51.990;5.926;2023-12-20T18:38:17;8.50;99.90
47336;DHT22;33068;51.990;5.926;2023-12-20T18:41:26;8.50;99.90
47336;DHT22;33068;51.990;5.926;2023-12-20T18:47:48;8.40;99.90
47336;DHT22;33068;51.990;5.926;2023-12-20T18:51:15;8.50;99.90
47336;DHT22;33068;51.990;5.926;2023-12-20T18:54:10;8.50;99.90
47336;DHT22;33068;51.990;5.926;2023-12-20T18:56:40;8.50;99.90
47336;DHT22;33068;51.990;5.926;2023-12-20T19:09:16;8.50;99.90
47336;DHT22;33068;51.990;5.926;2023-12-20T19:11:44;8.50;99.90
47336;DHT22;33068;51.990;5.926;2023-12-20T19:14:11;8.50;99.90
47336;DHT22;33068;51.990;5.926;2023-12-20T19:16:41;8.50;99.90